Time;durP1;ratioP1;P1;durP2;ratioP2;P2;SDS_P1;SDS_P2;PMS_P1;PMS_P2;Temp;Humidity;BMP_temperature;BMP_pressure;BME280_temperature;BME280_humidity;BME280_pressure;Samples;Min_cycle;Max_cycle;Signal;HPM_P1;HPM_P2
2024/04/04 00:01:51;;;;;;;16.60;16.10;;;20.00;66.40;;;;;;5093749;28;20948;-71
2024/04/04 00:04:18;;;;;;;16.90;16.30;;;20.00;66.40;;;;;;5093424;28;20463;-72
2024/04/04 00:06:44;;;;;;;17.00;16.37;;;20.00;66.30;;;;;;5093558;28;20698;-73
2024/04/04 00:09:11;;;;;;;17.40;16.80;;;20.00;66.30;;;;;;5092326;28;20445;-71
2024/04/04 00:11:37;;;;;;;16.90;16.30;;;20.00;66.30;;;;;;5093362;28;20196;-71
2024/04/04 00:14:06;;;;;;;17.03;16.43;;;20.00;66.30;;;;;;5093540;28;20828;-71
2024/04/04 00:16:33;;;;;;;17.03;16.43;;;19.90;66.30;;;;;;5093288;28;20196;-72
2024/04/04 00:19:00;;;;;;;16.90;16.30;;;19.90;66.20;;;;;;5093258;28;20910;-71
2024/04/04 00:21:26;;;;;;;16.77;16.17;;;19.90;66.30;;;;;;5093570;28;20449;-71
2024/04/04 00:23:52;;;;;;;17.10;16.50;;;19.90;66.20;;;;;;5093174;28;20545;-71
2024/04/04 00:26:20;;;;;;;17.43;16.83;;;19.90;66.30;;;;;;5093100;28;20591;-72
2024/04/04 00:28:47;;;;;;;17.13;16.53;;;19.90;66.20;;;;;;5092393;28;20530;-72
2024/04/04 00:31:15;;;;;;;17.73;17.03;;;19.90;66.20;;;;;;5093098;28;20483;-72
2024/04/04 00:33:42;;;;;;;16.93;16.43;;;19.90;66.20;;;;;;5085520;28;20824;-71
2024/04/04 00:36:08;;;;;;;17.10;16.60;;;19.90;66.40;;;;;;5093229;28;20445;-71
2024/04/04 00:38:35;;;;;;;16.80;16.30;;;19.90;66.40;;;;;;5092284;28;20430;-71
2024/04/04 00:41:02;;;;;;;17.13;16.47;;;19.90;66.30;;;;;;5092744;28;20200;-71
2024/04/04 00:43:29;;;;;;;17.20;16.60;;;19.80;66.40;;;;;;5093194;28;20488;-71
2024/04/04 00:45:56;;;;;;;17.10;16.60;;;19.80;66.40;;;;;;5092950;28;20505;-71
2024/04/04 00:48:24;;;;;;;17.60;17.00;;;19.80;66.30;;;;;;5092071;28;20446;-71
2024/04/04 00:50:54;;;;;;;17.30;16.70;;;19.80;66.30;;;;;;5092508;28;20435;-71
2024/04/04 00:53:22;;;;;;;16.90;16.40;;;19.90;66.40;;;;;;5091871;28;20512;-71
2024/04/04 00:55:49;;;;;;;16.70;16.20;;;19.80;66.40;;;;;;5092999;28;20439;-71
2024/04/04 00:58:16;;;;;;;17.17;16.47;;;19.80;66.20;;;;;;5092093;28;20488;-71
2024/04/04 01:00:42;;;;;;;16.37;15.77;;;19.80;66.20;;;;;;5084420;28;20817;-71
2024/04/04 01:03:09;;;;;;;17.23;16.63;;;19.80;66.10;;;;;;5092569;28;20517;-71
2024/04/04 01:05:36;;;;;;;16.70;16.20;;;19.80;66.10;;;;;;5092429;28;20984;-71
2024/04/04 01:08:04;;;;;;;16.80;16.30;;;19.80;66.20;;;;;;5091867;28;20525;-71
2024/04/04 01:10:29;;;;;;;16.67;16.17;;;19.80;66.20;;;;;;5092074;28;20445;-72
2024/04/04 01:12:56;;;;;;;17.30;16.70;;;19.80;66.30;;;;;;5092311;28;20458;-71
2024/04/04 01:15:22;;;;;;;16.90;16.40;;;19.80;66.30;;;;;;5092191;28;20227;-71
2024/04/04 01:17:48;;;;;;;16.97;16.47;;;19.70;66.20;;;;;;5091768;28;20873;-72
2024/04/04 01:20:14;;;;;;;17.63;17.03;;;19.80;66.40;;;;;;5091910;28;20200;-72
2024/04/04 01:22:42;;;;;;;17.43;16.83;;;19.70;66.40;;;;;;5091864;28;20458;-72
2024/04/04 01:25:10;;;;;;;16.70;16.10;;;19.70;66.50;;;;;;5091425;28;20200;-72
2024/04/04 01:27:37;;;;;;;17.00;16.50;;;19.70;66.60;;;;;;5092315;28;20474;-72
2024/04/04 01:30:04;;;;;;;17.10;16.50;;;19.70;66.70;;;;;;5091654;28;20442;-72
2024/04/04 01:32:31;;;;;;;17.33;16.53;;;19.70;66.80;;;;;;5091823;28;20438;-72
2024/04/04 01:34:57;;;;;;;16.97;16.47;;;19.70;66.70;;;;;;5092081;28;20450;-72
2024/04/04 01:37:23;;;;;;;17.10;16.50;;;19.70;66.70;;;;;;5091300;28;20443;-71
2024/04/04 01:39:49;;;;;;;16.97;16.37;;;19.70;66.70;;;;;;5091600;28;20560;-71
2024/04/04 01:42:17;;;;;;;16.60;16.10;;;19.70;66.70;;;;;;5092078;28;20446;-72
2024/04/04 01:44:43;;;;;;;17.07;16.47;;;19.70;66.70;;;;;;5083751;28;20200;-71
2024/04/04 01:47:09;;;;;;;17.00;16.40;;;19.70;66.70;;;;;;5091134;28;20477;-71
2024/04/04 01:49:35;;;;;;;17.17;16.57;;;19.70;66.80;;;;;;5087239;28;20701;-71
2024/04/04 01:52:02;;;;;;;16.97;16.47;;;19.70;66.70;;;;;;5088613;28;20446;-72
2024/04/04 01:54:28;;;;;;;17.00;16.40;;;19.70;66.60;;;;;;5089597;28;20587;-71
2024/04/04 01:56:55;;;;;;;17.23;16.63;;;19.70;66.60;;;;;;5092068;28;20438;-72
2024/04/04 01:59:22;;;;;;;17.17;16.57;;;19.70;66.70;;;;;;5091294;28;20450;-72
2024/04/04 02:01:49;;;;;;;16.90;16.40;;;19.70;66.70;;;;;;5091216;28;20442;-71
2024/04/04 02:04:14;;;;;;;17.07;16.47;;;19.70;66.70;;;;;;5094014;28;20473;-72
2024/04/04 02:06:41;;;;;;;17.40;16.80;;;19.70;66.70;;;;;;5098080;28;20470;-73
2024/04/04 02:09:07;;;;;;;16.90;16.40;;;19.70;66.70;;;;;;5097942;28;20204;-72
2024/04/04 02:11:35;;;;;;;21.00;20.20;;;19.60;66.60;;;;;;5098272;28;20438;-71
2024/04/04 02:14:00;;;;;;;17.07;16.50;;;19.60;66.60;;;;;;5097723;28;20461;-72
2024/04/04 02:16:29;;;;;;;17.40;16.80;;;19.70;66.70;;;;;;5098366;28;20460;-71
2024/04/04 02:18:54;;;;;;;17.37;16.70;;;19.60;66.70;;;;;;5098051;28;20203;-73
2024/04/04 02:21:21;;;;;;;17.00;16.40;;;19.60;66.70;;;;;;5098147;28;20963;-71
2024/04/04 02:23:47;;;;;;;16.90;16.40;;;19.60;66.70;;;;;;5094049;28;20216;-72
2024/04/04 02:26:14;;;;;;;17.60;17.00;;;19.60;66.60;;;;;;5098222;28;20564;-72
2024/04/04 02:28:40;;;;;;;16.70;16.20;;;19.60;66.70;;;;;;5098145;28;20208;-71
2024/04/04 02:31:06;;;;;;;16.93;16.43;;;19.60;66.60;;;;;;5097215;28;20496;-72
2024/04/04 02:33:33;;;;;;;16.80;16.30;;;19.60;66.60;;;;;;5098183;28;20293;-72
2024/04/04 02:36:00;;;;;;;16.70;16.20;;;19.60;66.60;;;;;;5098065;28;21000;-72
2024/04/04 02:38:26;;;;;;;17.00;16.40;;;19.60;66.60;;;;;;5097930;28;20525;-71
2024/04/04 02:40:53;;;;;;;16.63;16.13;;;19.60;66.60;;;;;;5097228;28;20438;-71
2024/04/04 02:43:20;;;;;;;17.00;16.40;;;19.60;66.60;;;;;;5098238;28;21101;-71
2024/04/04 02:45:46;;;;;;;16.90;16.40;;;19.60;66.70;;;;;;5097930;28;20472;-71
2024/04/04 02:48:13;;;;;;;17.83;17.23;;;19.60;66.70;;;;;;5098017;28;20438;-71
2024/04/04 02:50:40;;;;;;;17.40;16.70;;;19.60;66.60;;;;;;5097040;28;20438;-71
2024/04/04 02:53:07;;;;;;;17.00;16.50;;;19.60;66.80;;;;;;5098109;28;20491;-71
2024/04/04 02:55:33;;;;;;;17.20;16.40;;;19.60;66.60;;;;;;5097879;28;20446;-71
2024/04/04 02:58:00;;;;;;;17.07;16.57;;;19.60;66.70;;;;;;5098005;28;20454;-70
2024/04/04 03:00:25;;;;;;;17.30;16.70;;;19.60;66.60;;;;;;5096878;28;20449;-72
2024/04/04 03:02:53;;;;;;;18.70;18.00;;;19.60;66.60;;;;;;5098026;28;20466;-71
2024/04/04 03:05:20;;;;;;;18.30;17.60;;;19.60;66.70;;;;;;5097971;28;20449;-72
2024/04/04 03:07:49;;;;;;;17.93;17.30;;;19.60;66.70;;;;;;5083589;28;20512;-71
2024/04/04 03:10:15;;;;;;;18.17;17.47;;;19.60;66.70;;;;;;5096589;28;20933;-71
2024/04/04 03:12:42;;;;;;;18.00;17.40;;;19.50;66.70;;;;;;5097654;28;20453;-71
2024/04/04 03:15:08;;;;;;;18.10;17.50;;;19.50;66.70;;;;;;5097077;28;20196;-71
2024/04/04 03:17:35;;;;;;;18.93;18.23;;;19.50;66.80;;;;;;5093056;28;21004;-71
2024/04/04 03:20:01;;;;;;;18.00;17.40;;;19.50;66.90;;;;;;5094177;28;20329;-72
2024/04/04 03:22:27;;;;;;;18.20;17.50;;;19.60;66.90;;;;;;5094606;28;20446;-71
2024/04/04 03:24:55;;;;;;;17.87;17.20;;;19.60;67.00;;;;;;5093626;28;20204;-71
2024/04/04 03:27:22;;;;;;;17.57;16.90;;;19.60;67.00;;;;;;5093574;28;20474;-70
2024/04/04 03:29:47;;;;;;;18.20;17.50;;;19.50;67.00;;;;;;5094022;28;20465;-71
2024/04/04 03:32:14;;;;;;;18.20;17.50;;;19.50;67.20;;;;;;5094406;28;20526;-71
2024/04/04 03:34:40;;;;;;;17.90;17.30;;;19.50;67.40;;;;;;5093673;28;20245;-71
2024/04/04 03:37:07;;;;;;;18.10;17.50;;;19.50;67.40;;;;;;5094306;28;20439;-72
2024/04/04 03:39:34;;;;;;;18.30;17.60;;;19.50;67.30;;;;;;5093657;28;20445;-71
2024/04/04 03:42:02;;;;;;;18.10;17.50;;;19.50;67.20;;;;;;5094196;28;20442;-71
2024/04/04 03:44:29;;;;;;;18.80;18.20;;;19.50;67.20;;;;;;5093537;28;20463;-71
2024/04/04 03:46:54;;;;;;;18.30;17.60;;;19.50;67.30;;;;;;5086507;28;20552;-71
2024/04/04 03:49:22;;;;;;;18.00;17.40;;;19.50;67.40;;;;;;5093508;28;20442;-71
2024/04/04 03:51:49;;;;;;;18.20;17.50;;;19.50;67.40;;;;;;5085454;28;20231;-72
2024/04/04 03:54:16;;;;;;;18.63;17.93;;;19.50;67.50;;;;;;5093840;28;20466;-71
2024/04/04 03:56:42;;;;;;;18.40;17.80;;;19.50;67.40;;;;;;5093164;28;20442;-71
2024/04/04 03:59:10;;;;;;;18.30;17.70;;;19.50;67.50;;;;;;5093446;28;20439;-71
2024/04/04 04:01:35;;;;;;;19.40;18.60;;;19.50;67.60;;;;;;5093787;28;20667;-71
2024/04/04 04:04:02;;;;;;;19.10;18.30;;;19.50;67.80;;;;;;5092957;28;20470;-71
2024/04/04 04:06:28;;;;;;;18.70;18.00;;;19.50;67.80;;;;;;5093455;28;20220;-71
2024/04/04 04:08:54;;;;;;;20.40;19.60;;;19.50;67.90;;;;;;5093452;28;20446;-71
2024/04/04 04:11:20;;;;;;;19.23;18.53;;;19.50;68.00;;;;;;5093455;28;20208;-71
2024/04/04 04:13:47;;;;;;;18.80;18.10;;;19.50;68.10;;;;;;5089345;28;20822;-71
2024/04/04 04:16:14;;;;;;;18.90;18.20;;;19.50;68.20;;;;;;5093379;28;20556;-71
2024/04/04 04:18:41;;;;;;;19.57;18.80;;;19.50;68.30;;;;;;5093152;28;20810;-71
2024/04/04 04:21:20;;;;;;;19.20;18.50;;;19.50;68.30;;;;;;5093057;28;20447;-71
2024/04/04 04:23:48;;;;;;;19.83;19.00;;;19.50;68.30;;;;;;5092387;28;20991;-71
2024/04/04 04:26:14;;;;;;;19.90;19.20;;;19.50;68.30;;;;;;5093178;28;20557;-71
2024/04/04 04:28:41;;;;;;;20.50;19.60;;;19.50;68.30;;;;;;5092890;28;20522;-71
2024/04/04 04:31:23;;;;;;;19.27;18.57;;;19.40;68.10;;;;;;5093111;28;20440;-71
2024/04/04 04:33:50;;;;;;;21.40;19.80;;;19.50;68.30;;;;;;5092069;28;20473;-71
2024/04/04 04:36:16;;;;;;;19.70;18.97;;;19.50;68.30;;;;;;5092978;28;20446;-70
2024/04/04 04:38:43;;;;;;;20.43;19.53;;;19.40;68.10;;;;;;5092786;28;20443;-71
2024/04/04 04:41:09;;;;;;;19.97;19.07;;;19.40;68.20;;;;;;5092863;28;20203;-71
2024/04/04 04:43:36;;;;;;;19.67;18.90;;;19.40;68.30;;;;;;5084200;28;20454;-71
2024/04/04 04:46:02;;;;;;;19.47;18.77;;;19.40;68.30;;;;;;5092788;28;20219;-71
2024/04/04 04:48:30;;;;;;;21.23;19.90;;;19.50;68.60;;;;;;5092645;28;20937;-72
2024/04/04 04:50:56;;;;;;;23.23;21.90;;;19.50;70.00;;;;;;5092521;28;20204;-72
2024/04/04 04:53:23;;;;;;;22.17;20.30;;;19.50;73.10;;;;;;5091934;28;20991;-71
2024/04/04 04:55:48;;;;;;;24.70;22.30;;;19.60;76.30;;;;;;5092536;28;20216;-71
2024/04/04 04:58:15;;;;;;;28.27;22.73;;;19.60;76.60;;;;;;5092796;28;20520;-71
2024/04/04 05:00:41;;;;;;;23.03;21.23;;;19.60;78.20;;;;;;5092162;28;20207;-70
2024/04/04 05:03:08;;;;;;;31.70;21.60;;;19.60;78.70;;;;;;5088342;28;20473;-66
2024/04/04 05:05:35;;;;;;;25.03;21.97;;;19.70;84.80;;;;;;5090873;28;20201;-65
2024/04/04 05:08:02;;;;;;;27.53;22.87;;;19.70;94.00;;;;;;5091318;28;20478;-65
2024/04/04 05:10:29;;;;;;;26.00;22.60;;;19.70;96.40;;;;;;5091855;28;20457;-65
2024/04/04 05:12:56;;;;;;;24.83;22.63;;;19.70;96.40;;;;;;5092346;28;20656;-65
2024/04/04 05:15:22;;;;;;;39.80;23.30;;;19.70;95.80;;;;;;5092247;28;20478;-66
2024/04/04 05:17:49;;;;;;;26.60;21.63;;;19.60;95.10;;;;;;5092060;28;20453;-65
2024/04/04 05:20:15;;;;;;;29.63;23.37;;;19.60;95.10;;;;;;5092124;28;20446;-65
2024/04/04 05:22:44;;;;;;;25.10;22.50;;;19.60;94.70;;;;;;5092072;28;20461;-66
2024/04/04 05:25:14;;;;;;;23.47;21.10;;;19.60;93.70;;;;;;5092173;28;20438;-66
2024/04/04 05:27:41;;;;;;;23.63;21.53;;;19.60;93.30;;;;;;5091877;28;20481;-65
2024/04/04 05:30:10;;;;;;;29.83;25.20;;;19.60;92.70;;;;;;5091757;28;20825;-65
2024/04/04 05:32:37;;;;;;;27.43;24.60;;;19.60;92.50;;;;;;5091673;28;20506;-65
2024/04/04 05:35:04;;;;;;;25.60;23.10;;;19.60;91.90;;;;;;5092114;28;20491;-66
2024/04/04 05:37:30;;;;;;;23.30;20.90;;;19.50;91.60;;;;;;5092073;28;20439;-66
2024/04/04 05:39:58;;;;;;;22.77;20.97;;;19.60;91.30;;;;;;5091083;28;20437;-65
2024/04/04 05:42:27;;;;;;;25.53;23.40;;;19.50;90.90;;;;;;5091672;28;20609;-65
2024/04/04 05:44:54;;;;;;;24.97;22.73;;;19.50;90.60;;;;;;5091631;28;20435;-66
2024/04/04 05:47:20;;;;;;;23.97;21.20;;;19.50;90.20;;;;;;5091686;28;20485;-65
2024/04/04 05:49:47;;;;;;;23.83;21.40;;;19.50;90.10;;;;;;5091481;28;20446;-65
2024/04/04 05:52:12;;;;;;;24.83;22.63;;;19.60;89.70;;;;;;5091930;28;20439;-65
2024/04/04 05:54:39;;;;;;;24.43;22.50;;;19.50;89.00;;;;;;5091695;28;20465;-65
2024/04/04 05:57:06;;;;;;;25.07;22.77;;;19.50;88.40;;;;;;5091929;28;20200;-65
2024/04/04 05:59:33;;;;;;;22.03;20.30;;;19.60;87.70;;;;;;5091420;28;20439;-65
2024/04/04 06:01:59;;;;;;;23.30;21.97;;;19.50;87.10;;;;;;5091622;28;20528;-66
2024/04/04 06:04:26;;;;;;;24.20;21.70;;;19.50;86.40;;;;;;5091715;28;20458;-67
2024/04/04 06:06:52;;;;;;;22.23;20.83;;;19.50;86.00;;;;;;5091494;28;20215;-65
2024/04/04 06:09:18;;;;;;;23.63;21.70;;;19.50;85.60;;;;;;5091255;28;20443;-66
2024/04/04 06:11:44;;;;;;;23.93;21.53;;;19.50;84.90;;;;;;5091598;28;20200;-65
2024/04/04 06:14:12;;;;;;;22.53;20.70;;;19.50;84.40;;;;;;5091595;28;20548;-65
2024/04/04 06:16:38;;;;;;;23.63;22.23;;;19.50;84.10;;;;;;5091349;28;20211;-66
2024/04/04 06:19:05;;;;;;;23.00;21.30;;;19.50;83.70;;;;;;5091210;28;20438;-66
2024/04/04 06:21:31;;;;;;;24.00;22.20;;;19.50;83.30;;;;;;5091219;28;20953;-67
2024/04/04 06:23:58;;;;;;;22.80;21.30;;;19.50;83.10;;;;;;5091290;28;20576;-65
2024/04/04 06:26:26;;;;;;;22.87;21.57;;;19.50;82.90;;;;;;5091360;28;20208;-66
2024/04/04 06:28:53;;;;;;;23.57;22.23;;;19.50;82.50;;;;;;5091317;28;20450;-66
2024/04/04 06:31:20;;;;;;;22.50;21.00;;;19.50;82.20;;;;;;5091076;28;20806;-65
2024/04/04 06:33:47;;;;;;;22.73;21.17;;;19.50;81.70;;;;;;5091499;28;20469;-68
2024/04/04 06:36:13;;;;;;;22.63;21.13;;;19.50;81.40;;;;;;5091339;28;20442;-69
2024/04/04 06:38:40;;;;;;;24.17;22.67;;;19.50;81.20;;;;;;5091438;28;20824;-69
2024/04/04 06:41:06;;;;;;;22.30;21.10;;;19.50;81.00;;;;;;5090957;28;20454;-69
2024/04/04 06:43:33;;;;;;;22.90;21.43;;;19.50;80.70;;;;;;5091096;28;20522;-67
2024/04/04 06:45:59;;;;;;;22.20;20.73;;;19.50;80.40;;;;;;5091097;28;20663;-69
2024/04/04 06:48:27;;;;;;;22.63;21.20;;;19.40;80.10;;;;;;5091062;28;20466;-69
2024/04/04 06:50:52;;;;;;;22.73;21.30;;;19.50;79.80;;;;;;5090995;28;20215;-68
2024/04/04 06:53:19;;;;;;;23.03;21.40;;;19.40;79.60;;;;;;5094885;28;20462;-68
2024/04/04 06:55:45;;;;;;;22.03;21.03;;;19.40;79.40;;;;;;5094873;28;20204;-69
2024/04/04 06:58:13;;;;;;;21.83;20.57;;;19.40;79.20;;;;;;5094943;28;21021;-68
2024/04/04 07:00:39;;;;;;;21.67;20.57;;;19.40;79.00;;;;;;5094201;28;20238;-69
2024/04/04 07:03:05;;;;;;;22.50;21.20;;;19.40;78.70;;;;;;5094877;28;20881;-69
2024/04/04 07:05:33;;;;;;;22.70;21.40;;;19.40;78.60;;;;;;5094715;28;20212;-69
2024/04/04 07:07:59;;;;;;;23.00;21.37;;;19.40;78.40;;;;;;5094498;28;20557;-69
2024/04/04 07:10:25;;;;;;;21.47;20.47;;;19.40;78.30;;;;;;5094303;28;20445;-69
2024/04/04 07:12:52;;;;;;;22.07;20.97;;;19.40;78.80;;;;;;5094505;28;20462;-69
2024/04/04 07:15:18;;;;;;;22.60;21.30;;;19.40;77.90;;;;;;5094520;28;20552;-69
2024/04/04 07:17:45;;;;;;;21.63;20.53;;;19.40;77.70;;;;;;5094427;28;20435;-68
2024/04/04 07:20:11;;;;;;;21.93;20.63;;;19.40;77.60;;;;;;5094223;28;20442;-69
2024/04/04 07:22:39;;;;;;;22.70;21.10;;;19.40;77.30;;;;;;5094256;28;20454;-68
2024/04/04 07:25:05;;;;;;;22.27;21.07;;;19.40;77.10;;;;;;5094384;28;20208;-67
2024/04/04 07:27:31;;;;;;;23.70;22.40;;;19.40;77.00;;;;;;5094297;28;20470;-69
2024/04/04 07:29:57;;;;;;;22.00;20.90;;;19.40;76.90;;;;;;5093619;28;20457;-68
2024/04/04 07:32:24;;;;;;;21.00;19.90;;;19.40;76.80;;;;;;5094045;28;20442;-68
2024/04/04 07:34:49;;;;;;;21.93;20.83;;;19.40;76.70;;;;;;5094374;28;20583;-68
2024/04/04 07:37:16;;;;;;;21.30;20.33;;;19.40;77.30;;;;;;5094256;28;20450;-68
2024/04/04 07:39:43;;;;;;;21.37;20.37;;;19.40;76.40;;;;;;5093664;28;20211;-69
2024/04/04 07:42:10;;;;;;;22.00;20.70;;;19.40;76.30;;;;;;5094033;28;20492;-68
2024/04/04 07:44:37;;;;;;;22.13;20.93;;;19.40;76.10;;;;;;5093688;28;20471;-69
2024/04/04 07:47:04;;;;;;;20.87;19.40;;;19.40;76.00;;;;;;5093944;28;20633;-69
2024/04/04 07:49:30;;;;;;;20.83;19.53;;;19.40;75.90;;;;;;5093719;28;20443;-69
2024/04/04 07:51:56;;;;;;;20.67;19.67;;;19.40;75.70;;;;;;5093741;28;20441;-69
2024/04/04 07:54:23;;;;;;;21.23;20.00;;;19.40;75.60;;;;;;5093836;28;20245;-69
2024/04/04 07:56:51;;;;;;;24.57;23.47;;;19.40;75.60;;;;;;5093994;28;20504;-69
2024/04/04 07:59:17;;;;;;;22.10;20.90;;;19.40;75.40;;;;;;5093337;28;20435;-68
2024/04/04 08:01:43;;;;;;;22.30;21.30;;;19.40;75.30;;;;;;5093071;28;20461;-69
2024/04/04 08:04:09;;;;;;;22.77;21.67;;;19.30;75.10;;;;;;5093431;28;20220;-68
2024/04/04 08:06:36;;;;;;;23.37;22.37;;;19.40;75.10;;;;;;5093618;28;20441;-69
2024/04/04 08:09:03;;;;;;;22.53;21.63;;;19.30;74.90;;;;;;5084805;28;20220;-69
2024/04/04 08:11:29;;;;;;;23.40;22.40;;;19.40;74.90;;;;;;5093371;28;20952;-69
2024/04/04 08:13:57;;;;;;;22.23;21.30;;;19.30;74.70;;;;;;5093065;28;20469;-69
2024/04/04 08:16:23;;;;;;;22.30;21.30;;;19.30;74.50;;;;;;5093474;28;20438;-69
2024/04/04 08:18:50;;;;;;;23.43;22.53;;;19.30;74.40;;;;;;5093106;28;20667;-69
2024/04/04 08:21:16;;;;;;;22.10;21.30;;;19.30;74.30;;;;;;5092841;28;20674;-69
2024/04/04 08:23:43;;;;;;;22.43;21.23;;;19.30;74.30;;;;;;5092977;28;20523;-69
2024/04/04 08:26:09;;;;;;;23.20;22.30;;;19.30;74.10;;;;;;5093072;28;20204;-68
2024/04/04 08:28:35;;;;;;;23.97;22.97;;;19.30;73.90;;;;;;5093072;28;20996;-69
2024/04/04 08:31:03;;;;;;;22.60;21.70;;;19.30;73.90;;;;;;5092561;28;20201;-69
2024/04/04 08:33:31;;;;;;;22.33;21.43;;;19.30;73.70;;;;;;5092904;28;20502;-69
2024/04/04 08:35:58;;;;;;;23.73;22.53;;;19.30;73.70;;;;;;5092954;28;20488;-68
2024/04/04 08:38:24;;;;;;;22.67;21.77;;;19.30;73.70;;;;;;5092827;28;20463;-69
2024/04/04 08:40:51;;;;;;;23.80;22.70;;;19.30;73.60;;;;;;5092393;28;20464;-68
2024/04/04 08:43:19;;;;;;;22.27;21.40;;;19.30;73.60;;;;;;5092668;28;20497;-69
2024/04/04 08:45:46;;;;;;;21.40;20.57;;;19.30;73.40;;;;;;5092496;28;20820;-69
2024/04/04 08:48:16;;;;;;;22.23;21.23;;;19.30;73.40;;;;;;5092678;28;20535;-69
2024/04/04 08:50:45;;;;;;;22.03;21.13;;;19.30;73.40;;;;;;5092155;28;20446;-69
2024/04/04 08:53:13;;;;;;;22.23;21.43;;;19.30;73.30;;;;;;5092672;28;20469;-69
2024/04/04 08:55:39;;;;;;;22.40;21.20;;;19.30;73.20;;;;;;5092574;28;20447;-68
2024/04/04 08:58:08;;;;;;;22.87;21.93;;;19.30;73.10;;;;;;5092427;28;20487;-69
2024/04/04 09:00:34;;;;;;;22.57;21.57;;;19.30;73.10;;;;;;5092394;28;20442;-68
2024/04/04 09:03:01;;;;;;;20.80;20.00;;;19.30;73.00;;;;;;5092642;28;20457;-68
2024/04/04 09:05:28;;;;;;;21.43;20.40;;;19.30;72.90;;;;;;5092580;28;20282;-67
2024/04/04 09:07:55;;;;;;;21.17;20.27;;;19.30;72.80;;;;;;5092633;28;20480;-68
2024/04/04 09:10:20;;;;;;;21.70;20.90;;;19.30;72.80;;;;;;5092403;28;20435;-67
2024/04/04 09:12:47;;;;;;;22.10;21.20;;;19.30;72.70;;;;;;5092215;28;20455;-68
2024/04/04 09:15:14;;;;;;;21.53;20.77;;;19.30;72.60;;;;;;5091611;28;20223;-67
2024/04/04 09:17:40;;;;;;;21.97;20.97;;;19.30;72.50;;;;;;5092197;28;20820;-68
2024/04/04 09:20:10;;;;;;;21.40;20.70;;;19.30;72.50;;;;;;5092005;28;20438;-68
2024/04/04 09:22:40;;;;;;;20.87;20.07;;;19.30;72.50;;;;;;5092402;28;20447;-68
2024/04/04 09:25:09;;;;;;;21.47;20.60;;;19.30;72.40;;;;;;5084342;28;20522;-68
2024/04/04 09:27:38;;;;;;;22.57;21.60;;;19.30;72.30;;;;;;5092313;28;20523;-68
2024/04/04 09:30:10;;;;;;;21.53;20.73;;;19.30;72.30;;;;;;5092035;28;20442;-68
2024/04/04 09:32:37;;;;;;;22.23;21.43;;;19.30;72.30;;;;;;5092269;28;20442;-68
2024/04/04 09:35:05;;;;;;;22.50;21.60;;;19.30;72.20;;;;;;5092415;28;20483;-68
2024/04/04 09:37:34;;;;;;;21.93;20.93;;;19.30;72.10;;;;;;5092400;28;20434;-68
2024/04/04 09:40:03;;;;;;;22.73;21.63;;;19.30;72.10;;;;;;5091810;28;20871;-68
2024/04/04 09:42:30;;;;;;;21.90;21.00;;;19.30;72.00;;;;;;5092508;28;20450;-67
2024/04/04 09:44:56;;;;;;;21.50;20.70;;;19.30;72.00;;;;;;5092362;28;20443;-68
2024/04/04 09:47:26;;;;;;;20.70;19.90;;;19.30;71.90;;;;;;5092134;28;20477;-68
2024/04/04 09:49:52;;;;;;;20.67;19.83;;;19.30;71.90;;;;;;5091521;28;20204;-68
2024/04/04 09:52:22;;;;;;;21.10;20.40;;;19.30;71.80;;;;;;5092058;28;20491;-68
2024/04/04 09:54:49;;;;;;;20.77;19.97;;;19.30;71.80;;;;;;5092120;28;20431;-68
2024/04/04 09:57:17;;;;;;;21.50;20.63;;;19.30;71.70;;;;;;5092293;28;20503;-68
2024/04/04 09:59:43;;;;;;;21.40;20.50;;;19.30;71.60;;;;;;5091593;28;20443;-68
2024/04/04 10:02:10;;;;;;;21.33;20.53;;;19.30;71.60;;;;;;5091794;28;20800;-68
2024/04/04 10:04:36;;;;;;;21.03;20.33;;;19.30;71.60;;;;;;5091965;28;20259;-67
2024/04/04 10:07:03;;;;;;;21.43;20.53;;;19.30;71.50;;;;;;5091642;28;20446;-68
2024/04/04 10:09:37;;;;;;;20.77;20.07;;;19.30;71.50;;;;;;5091604;28;20438;-68
2024/04/04 10:12:09;;;;;;;21.07;20.27;;;19.30;71.40;;;;;;5091786;28;20434;-68
2024/04/04 10:14:36;;;;;;;21.30;20.50;;;19.30;71.40;;;;;;5091900;28;20454;-68
2024/04/04 10:17:06;;;;;;;21.70;20.80;;;19.30;71.30;;;;;;5091817;28;21013;-68
2024/04/04 10:19:34;;;;;;;21.70;20.90;;;19.30;72.10;;;;;;5091485;28;21034;-68
2024/04/04 10:22:03;;;;;;;20.93;20.13;;;19.30;71.30;;;;;;5091686;28;20445;-68
2024/04/04 10:24:30;;;;;;;21.37;20.57;;;19.30;71.20;;;;;;5091577;28;20459;-67
2024/04/04 10:26:58;;;;;;;21.83;20.87;;;19.30;71.20;;;;;;5095381;28;20870;-68
2024/04/04 10:29:27;;;;;;;21.70;20.80;;;19.30;71.10;;;;;;5095287;28;20486;-67
2024/04/04 10:31:55;;;;;;;21.33;20.63;;;19.30;71.10;;;;;;5095404;28;20473;-68
2024/04/04 10:34:21;;;;;;;21.00;20.30;;;19.30;71.10;;;;;;5095656;28;20834;-68
2024/04/04 10:36:48;;;;;;;21.00;20.20;;;19.30;71.00;;;;;;5095379;28;20438;-67
2024/04/04 10:39:16;;;;;;;20.70;19.90;;;19.30;71.00;;;;;;5095132;28;20279;-68
2024/04/04 10:41:45;;;;;;;21.27;20.47;;;19.30;70.90;;;;;;5095358;28;20434;-67
2024/04/04 10:44:13;;;;;;;21.00;20.20;;;19.30;70.90;;;;;;5087201;28;20450;-68
2024/04/04 10:46:41;;;;;;;20.97;20.17;;;19.30;70.90;;;;;;5095418;28;20446;-67
2024/04/04 10:49:09;;;;;;;20.50;19.70;;;19.30;70.80;;;;;;5094944;28;20481;-68
2024/04/04 10:51:36;;;;;;;20.80;20.00;;;19.30;70.70;;;;;;5095469;28;20446;-67
2024/04/04 10:54:03;;;;;;;21.60;20.77;;;19.30;70.70;;;;;;5095108;28;20469;-68
2024/04/04 10:56:30;;;;;;;20.43;19.63;;;19.30;70.60;;;;;;5095176;28;20539;-68
2024/04/04 10:58:56;;;;;;;20.43;19.63;;;19.30;70.60;;;;;;5095229;28;20948;-68
2024/04/04 11:01:23;;;;;;;19.80;19.10;;;19.30;70.50;;;;;;5094854;28;20442;-68
2024/04/04 11:03:51;;;;;;;20.27;19.50;;;19.30;70.50;;;;;;5094695;28;20454;-68
2024/04/04 11:06:20;;;;;;;20.70;19.90;;;19.30;70.60;;;;;;5094863;28;20449;-68
2024/04/04 11:08:49;;;;;;;20.50;19.80;;;19.30;70.50;;;;;;5094828;28;20477;-68
2024/04/04 11:11:16;;;;;;;21.40;20.60;;;19.30;70.50;;;;;;5094651;28;20441;-68
2024/04/04 11:13:42;;;;;;;21.07;20.27;;;19.30;70.50;;;;;;5094911;28;20458;-68
2024/04/04 11:16:10;;;;;;;21.13;20.37;;;19.30;70.50;;;;;;5094703;28;20447;-68
2024/04/04 11:18:37;;;;;;;20.80;20.00;;;19.30;70.50;;;;;;5094711;28;20441;-67
2024/04/04 11:21:05;;;;;;;20.50;19.80;;;19.30;70.50;;;;;;5094062;28;20446;-67
2024/04/04 11:23:32;;;;;;;20.93;20.13;;;19.30;70.40;;;;;;5094590;28;20488;-68
2024/04/04 11:25:58;;;;;;;20.33;19.63;;;19.30;70.40;;;;;;5094671;28;20453;-68
2024/04/04 11:28:24;;;;;;;21.63;20.83;;;19.30;70.30;;;;;;5094553;28;20474;-68
2024/04/04 11:30:51;;;;;;;19.90;19.17;;;19.30;70.30;;;;;;5093983;28;20442;-68
2024/04/04 11:33:17;;;;;;;20.00;19.40;;;19.30;70.30;;;;;;5094308;28;20461;-68
2024/04/04 11:35:45;;;;;;;21.30;20.53;;;19.30;70.20;;;;;;5094298;28;20453;-68
2024/04/04 11:38:10;;;;;;;19.90;19.20;;;19.30;70.20;;;;;;5093181;28;20196;-68
2024/04/04 11:40:39;;;;;;;19.70;19.00;;;19.30;70.20;;;;;;5094118;28;20438;-68
2024/04/04 11:43:04;;;;;;;20.13;19.47;;;19.30;70.10;;;;;;5094142;28;20229;-68
2024/04/04 11:45:31;;;;;;;19.90;19.20;;;19.30;70.10;;;;;;5093906;28;20445;-68
2024/04/04 11:47:57;;;;;;;20.10;19.40;;;19.30;70.10;;;;;;5093755;28;20220;-68
2024/04/04 11:50:24;;;;;;;20.77;20.07;;;19.30;70.10;;;;;;5093694;28;20450;-68
2024/04/04 11:52:50;;;;;;;19.17;18.53;;;19.30;70.10;;;;;;5093800;28;20216;-68
2024/04/04 11:55:16;;;;;;;21.33;20.63;;;19.30;70.10;;;;;;5093846;28;20461;-69
2024/04/04 11:57:43;;;;;;;20.43;19.73;;;19.30;70.10;;;;;;5093725;28;20192;-68
2024/04/04 12:00:11;;;;;;;20.53;19.83;;;19.30;70.10;;;;;;5093201;28;20444;-69
2024/04/04 12:02:37;;;;;;;20.53;19.83;;;19.30;70.00;;;;;;5093460;28;20462;-68
2024/04/04 12:05:05;;;;;;;20.63;19.93;;;19.30;70.00;;;;;;5093533;28;20438;-69
2024/04/04 12:07:31;;;;;;;20.20;19.60;;;19.30;70.00;;;;;;5093482;28;20200;-69
2024/04/04 12:09:58;;;;;;;20.73;20.03;;;19.30;69.90;;;;;;5092935;28;20455;-68
2024/04/04 12:12:24;;;;;;;20.90;20.10;;;19.30;69.80;;;;;;5093385;28;20229;-69
2024/04/04 12:14:52;;;;;;;20.73;19.93;;;19.30;69.90;;;;;;5093160;28;20836;-69
2024/04/04 12:17:19;;;;;;;20.60;20.00;;;19.30;69.80;;;;;;5093336;28;20227;-68
2024/04/04 12:19:45;;;;;;;20.27;19.57;;;19.30;69.80;;;;;;5092847;28;20439;-68
2024/04/04 12:22:12;;;;;;;20.70;20.00;;;19.30;69.80;;;;;;5093104;28;20438;-68
2024/04/04 12:24:39;;;;;;;20.57;19.97;;;19.20;69.60;;;;;;5093015;28;20462;-69
2024/04/04 12:27:06;;;;;;;20.63;20.03;;;19.30;69.70;;;;;;5092914;28;20465;-67